sensor_id;sensor_type;location;lat;lon;timestamp;P1;durP1;ratioP1;P2;durP2;ratioP2
13973;SDS011;7060;43.770;4.008;2023-04-24T00:00:04;3.57;;;0.80;;
13973;SDS011;7060;43.770;4.008;2023-04-24T00:02:36;1.90;;;0.60;;
13973;SDS011;7060;43.770;4.008;2023-04-24T00:05:08;5.17;;;0.50;;
13973;SDS011;7060;43.770;4.008;2023-04-24T00:07:37;1.23;;;0.50;;
13973;SDS011;7060;43.770;4.008;2023-04-24T00:10:05;3.63;;;0.70;;
13973;SDS011;7060;43.770;4.008;2023-04-24T00:12:35;1.80;;;0.70;;
13973;SDS011;7060;43.770;4.008;2023-04-24T00:15:04;1.43;;;0.47;;
13973;SDS011;7060;43.770;4.008;2023-04-24T00:17:33;1.43;;;0.80;;
13973;SDS011;7060;43.770;4.008;2023-04-24T00:20:02;0.80;;;0.60;;
13973;SDS011;7060;43.770;4.008;2023-04-24T00:22:32;3.40;;;0.70;;
13973;SDS011;7060;43.770;4.008;2023-04-24T00:25:01;1.53;;;0.63;;
13973;SDS011;7060;43.770;4.008;2023-04-24T00:27:29;1.80;;;0.80;;
13973;SDS011;7060;43.770;4.008;2023-04-24T00:29:58;3.30;;;0.83;;
13973;SDS011;7060;43.770;4.008;2023-04-24T00:32:26;5.90;;;0.80;;
13973;SDS011;7060;43.770;4.008;2023-04-24T00:34:55;2.67;;;0.60;;
13973;SDS011;7060;43.770;4.008;2023-04-24T00:37:23;3.50;;;0.97;;
13973;SDS011;7060;43.770;4.008;2023-04-24T00:39:53;2.90;;;0.93;;
13973;SDS011;7060;43.770;4.008;2023-04-24T00:42:21;5.27;;;0.87;;
13973;SDS011;7060;43.770;4.008;2023-04-24T00:44:50;5.17;;;0.90;;
13973;SDS011;7060;43.770;4.008;2023-04-24T00:47:19;1.63;;;0.60;;
13973;SDS011;7060;43.770;4.008;2023-04-24T00:49:48;1.27;;;0.50;;
13973;SDS011;7060;43.770;4.008;2023-04-24T00:52:18;4.13;;;0.70;;
13973;SDS011;7060;43.770;4.008;2023-04-24T00:54:47;2.40;;;0.80;;
13973;SDS011;7060;43.770;4.008;2023-04-24T00:57:17;3.10;;;1.00;;
13973;SDS011;7060;43.770;4.008;2023-04-24T00:59:46;3.73;;;0.80;;
13973;SDS011;7060;43.770;4.008;2023-04-24T01:02:14;3.30;;;0.77;;
13973;SDS011;7060;43.770;4.008;2023-04-24T01:04:44;5.87;;;0.87;;
13973;SDS011;7060;43.770;4.008;2023-04-24T01:07:12;3.30;;;0.70;;
13973;SDS011;7060;43.770;4.008;2023-04-24T01:09:41;3.90;;;0.63;;
13973;SDS011;7060;43.770;4.008;2023-04-24T01:12:10;4.77;;;0.80;;
13973;SDS011;7060;43.770;4.008;2023-04-24T01:14:40;3.00;;;1.00;;
13973;SDS011;7060;43.770;4.008;2023-04-24T01:17:08;4.00;;;0.93;;
13973;SDS011;7060;43.770;4.008;2023-04-24T01:19:37;4.83;;;0.87;;
13973;SDS011;7060;43.770;4.008;2023-04-24T01:22:10;2.93;;;0.50;;
13973;SDS011;7060;43.770;4.008;2023-04-24T01:24:40;3.43;;;0.70;;
13973;SDS011;7060;43.770;4.008;2023-04-24T01:27:11;2.47;;;1.07;;
13973;SDS011;7060;43.770;4.008;2023-04-24T01:29:39;6.07;;;0.80;;
13973;SDS011;7060;43.770;4.008;2023-04-24T01:32:09;4.17;;;0.67;;
13973;SDS011;7060;43.770;4.008;2023-04-24T01:34:40;4.27;;;0.97;;
13973;SDS011;7060;43.770;4.008;2023-04-24T01:37:10;4.17;;;0.87;;
13973;SDS011;7060;43.770;4.008;2023-04-24T01:39:39;2.77;;;0.80;;
13973;SDS011;7060;43.770;4.008;2023-04-24T01:42:08;3.50;;;0.50;;
13973;SDS011;7060;43.770;4.008;2023-04-24T01:44:36;5.83;;;0.90;;
13973;SDS011;7060;43.770;4.008;2023-04-24T01:47:05;3.07;;;0.50;;
13973;SDS011;7060;43.770;4.008;2023-04-24T01:49:35;1.90;;;0.60;;
13973;SDS011;7060;43.770;4.008;2023-04-24T01:52:05;4.27;;;1.30;;
13973;SDS011;7060;43.770;4.008;2023-04-24T01:54:35;1.10;;;0.50;;
13973;SDS011;7060;43.770;4.008;2023-04-24T01:57:04;1.27;;;0.40;;
13973;SDS011;7060;43.770;4.008;2023-04-24T01:59:33;5.83;;;0.80;;
13973;SDS011;7060;43.770;4.008;2023-04-24T02:02:03;4.07;;;0.80;;
13973;SDS011;7060;43.770;4.008;2023-04-24T02:04:31;1.33;;;0.50;;
13973;SDS011;7060;43.770;4.008;2023-04-24T02:07:00;3.00;;;0.77;;
13973;SDS011;7060;43.770;4.008;2023-04-24T02:09:31;2.40;;;0.60;;
13973;SDS011;7060;43.770;4.008;2023-04-24T02:12:00;4.87;;;1.10;;
13973;SDS011;7060;43.770;4.008;2023-04-24T02:14:29;3.77;;;1.10;;
13973;SDS011;7060;43.770;4.008;2023-04-24T02:16:57;2.27;;;0.60;;
13973;SDS011;7060;43.770;4.008;2023-04-24T02:19:27;5.57;;;0.93;;
13973;SDS011;7060;43.770;4.008;2023-04-24T02:21:56;0.73;;;0.50;;
13973;SDS011;7060;43.770;4.008;2023-04-24T02:24:24;3.23;;;0.53;;
13973;SDS011;7060;43.770;4.008;2023-04-24T02:26:53;1.30;;;0.60;;
13973;SDS011;7060;43.770;4.008;2023-04-24T02:29:23;3.87;;;0.67;;
13973;SDS011;7060;43.770;4.008;2023-04-24T02:31:52;1.37;;;0.60;;
13973;SDS011;7060;43.770;4.008;2023-04-24T02:34:21;3.83;;;0.73;;
13973;SDS011;7060;43.770;4.008;2023-04-24T02:36:49;4.33;;;0.80;;
13973;SDS011;7060;43.770;4.008;2023-04-24T02:39:20;4.90;;;0.60;;
13973;SDS011;7060;43.770;4.008;2023-04-24T02:41:48;1.77;;;0.60;;
13973;SDS011;7060;43.770;4.008;2023-04-24T02:44:17;6.40;;;0.87;;
13973;SDS011;7060;43.770;4.008;2023-04-24T02:46:47;1.57;;;0.53;;
13973;SDS011;7060;43.770;4.008;2023-04-24T02:49:15;2.33;;;0.63;;
13973;SDS011;7060;43.770;4.008;2023-04-24T02:51:44;2.80;;;0.70;;
13973;SDS011;7060;43.770;4.008;2023-04-24T02:54:12;3.47;;;0.70;;
13973;SDS011;7060;43.770;4.008;2023-04-24T02:56:41;2.10;;;0.50;;
13973;SDS011;7060;43.770;4.008;2023-04-24T02:59:09;7.33;;;0.83;;
13973;SDS011;7060;43.770;4.008;2023-04-24T03:01:38;2.33;;;0.57;;
13973;SDS011;7060;43.770;4.008;2023-04-24T03:04:08;1.67;;;0.70;;
13973;SDS011;7060;43.770;4.008;2023-04-24T03:06:37;3.20;;;0.50;;
13973;SDS011;7060;43.770;4.008;2023-04-24T03:09:06;1.67;;;0.60;;
13973;SDS011;7060;43.770;4.008;2023-04-24T03:11:34;1.83;;;0.40;;
13973;SDS011;7060;43.770;4.008;2023-04-24T03:14:03;5.00;;;0.80;;
13973;SDS011;7060;43.770;4.008;2023-04-24T03:16:31;3.03;;;1.27;;
13973;SDS011;7060;43.770;4.008;2023-04-24T03:19:00;2.53;;;0.57;;
13973;SDS011;7060;43.770;4.008;2023-04-24T03:21:34;3.33;;;0.50;;
13973;SDS011;7060;43.770;4.008;2023-04-24T03:24:07;3.70;;;0.60;;
13973;SDS011;7060;43.770;4.008;2023-04-24T03:26:36;4.77;;;0.60;;
13973;SDS011;7060;43.770;4.008;2023-04-24T03:29:27;5.83;;;1.10;;
13973;SDS011;7060;43.770;4.008;2023-04-24T03:31:57;3.33;;;0.73;;
13973;SDS011;7060;43.770;4.008;2023-04-24T03:34:26;3.87;;;0.90;;
13973;SDS011;7060;43.770;4.008;2023-04-24T03:36:57;3.43;;;0.80;;
13973;SDS011;7060;43.770;4.008;2023-04-24T03:39:26;4.20;;;0.80;;
13973;SDS011;7060;43.770;4.008;2023-04-24T03:41:55;4.97;;;1.40;;
13973;SDS011;7060;43.770;4.008;2023-04-24T03:44:34;6.63;;;1.03;;
13973;SDS011;7060;43.770;4.008;2023-04-24T03:47:02;4.17;;;0.83;;
13973;SDS011;7060;43.770;4.008;2023-04-24T03:49:38;4.50;;;0.77;;
13973;SDS011;7060;43.770;4.008;2023-04-24T03:52:09;5.37;;;0.83;;
13973;SDS011;7060;43.770;4.008;2023-04-24T03:54:38;8.10;;;1.33;;
13973;SDS011;7060;43.770;4.008;2023-04-24T03:57:06;6.80;;;1.50;;
13973;SDS011;7060;43.770;4.008;2023-04-24T03:59:38;2.93;;;0.97;;
13973;SDS011;7060;43.770;4.008;2023-04-24T04:02:13;4.03;;;0.90;;
13973;SDS011;7060;43.770;4.008;2023-04-24T04:04:41;6.50;;;1.63;;
13973;SDS011;7060;43.770;4.008;2023-04-24T04:07:11;7.10;;;1.23;;
13973;SDS011;7060;43.770;4.008;2023-04-24T04:09:40;4.93;;;1.00;;
13973;SDS011;7060;43.770;4.008;2023-04-24T04:12:08;4.17;;;1.30;;
13973;SDS011;7060;43.770;4.008;2023-04-24T04:14:38;2.03;;;0.80;;
13973;SDS011;7060;43.770;4.008;2023-04-24T04:17:06;5.87;;;1.10;;
13973;SDS011;7060;43.770;4.008;2023-04-24T04:19:35;4.80;;;1.20;;
13973;SDS011;7060;43.770;4.008;2023-04-24T04:22:03;2.27;;;1.07;;
13973;SDS011;7060;43.770;4.008;2023-04-24T04:24:41;3.20;;;0.73;;
13973;SDS011;7060;43.770;4.008;2023-04-24T04:27:11;4.13;;;0.87;;
13973;SDS011;7060;43.770;4.008;2023-04-24T04:30:05;3.17;;;0.90;;
13973;SDS011;7060;43.770;4.008;2023-04-24T04:32:56;3.40;;;1.13;;
13973;SDS011;7060;43.770;4.008;2023-04-24T04:35:25;3.47;;;0.80;;
13973;SDS011;7060;43.770;4.008;2023-04-24T04:37:54;3.70;;;0.90;;
13973;SDS011;7060;43.770;4.008;2023-04-24T04:40:43;3.20;;;0.67;;
13973;SDS011;7060;43.770;4.008;2023-04-24T04:43:13;4.00;;;0.77;;
13973;SDS011;7060;43.770;4.008;2023-04-24T04:45:49;6.83;;;1.27;;
13973;SDS011;7060;43.770;4.008;2023-04-24T04:48:36;6.57;;;0.80;;
13973;SDS011;7060;43.770;4.008;2023-04-24T04:51:06;3.37;;;0.60;;
13973;SDS011;7060;43.770;4.008;2023-04-24T04:53:35;2.60;;;0.73;;
13973;SDS011;7060;43.770;4.008;2023-04-24T04:56:05;3.90;;;1.10;;
13973;SDS011;7060;43.770;4.008;2023-04-24T04:58:39;3.60;;;0.90;;
13973;SDS011;7060;43.770;4.008;2023-04-24T05:01:10;4.23;;;0.70;;
13973;SDS011;7060;43.770;4.008;2023-04-24T05:03:41;2.27;;;0.70;;
13973;SDS011;7060;43.770;4.008;2023-04-24T05:06:13;3.97;;;0.70;;
13973;SDS011;7060;43.770;4.008;2023-04-24T05:08:43;3.53;;;1.10;;
13973;SDS011;7060;43.770;4.008;2023-04-24T05:11:26;2.90;;;0.70;;
13973;SDS011;7060;43.770;4.008;2023-04-24T05:13:56;3.37;;;0.70;;
13973;SDS011;7060;43.770;4.008;2023-04-24T05:16:32;3.43;;;0.83;;
13973;SDS011;7060;43.770;4.008;2023-04-24T05:19:01;5.80;;;0.90;;
13973;SDS011;7060;43.770;4.008;2023-04-24T05:21:35;5.47;;;1.20;;
13973;SDS011;7060;43.770;4.008;2023-04-24T05:24:03;6.60;;;1.13;;
13973;SDS011;7060;43.770;4.008;2023-04-24T05:26:56;3.90;;;0.87;;
13973;SDS011;7060;43.770;4.008;2023-04-24T05:29:31;2.70;;;0.90;;
13973;SDS011;7060;43.770;4.008;2023-04-24T05:32:00;2.77;;;0.80;;
13973;SDS011;7060;43.770;4.008;2023-04-24T05:34:30;7.17;;;0.90;;
13973;SDS011;7060;43.770;4.008;2023-04-24T05:36:58;3.53;;;0.63;;
13973;SDS011;7060;43.770;4.008;2023-04-24T05:39:27;3.40;;;0.67;;
13973;SDS011;7060;43.770;4.008;2023-04-24T05:41:57;5.13;;;0.90;;
13973;SDS011;7060;43.770;4.008;2023-04-24T05:44:26;7.57;;;0.97;;
13973;SDS011;7060;43.770;4.008;2023-04-24T05:46:54;2.87;;;0.80;;
13973;SDS011;7060;43.770;4.008;2023-04-24T05:49:23;6.83;;;1.03;;
13973;SDS011;7060;43.770;4.008;2023-04-24T05:51:52;5.33;;;0.80;;
13973;SDS011;7060;43.770;4.008;2023-04-24T05:54:21;3.63;;;0.80;;
13973;SDS011;7060;43.770;4.008;2023-04-24T05:56:51;9.20;;;0.90;;
13973;SDS011;7060;43.770;4.008;2023-04-24T05:59:32;6.93;;;1.20;;
13973;SDS011;7060;43.770;4.008;2023-04-24T06:02:01;3.70;;;0.83;;
13973;SDS011;7060;43.770;4.008;2023-04-24T06:04:30;9.10;;;1.00;;
13973;SDS011;7060;43.770;4.008;2023-04-24T06:06:58;3.07;;;0.67;;
13973;SDS011;7060;43.770;4.008;2023-04-24T06:09:27;5.60;;;0.97;;
13973;SDS011;7060;43.770;4.008;2023-04-24T06:11:56;5.07;;;0.67;;
13973;SDS011;7060;43.770;4.008;2023-04-24T06:14:47;2.73;;;0.60;;
13973;SDS011;7060;43.770;4.008;2023-04-24T06:17:24;2.43;;;0.60;;
13973;SDS011;7060;43.770;4.008;2023-04-24T06:19:52;4.33;;;0.60;;
13973;SDS011;7060;43.770;4.008;2023-04-24T06:22:23;4.97;;;0.70;;
13973;SDS011;7060;43.770;4.008;2023-04-24T06:24:52;2.47;;;0.60;;
13973;SDS011;7060;43.770;4.008;2023-04-24T06:27:20;2.67;;;0.70;;
13973;SDS011;7060;43.770;4.008;2023-04-24T06:29:50;4.03;;;0.73;;
13973;SDS011;7060;43.770;4.008;2023-04-24T06:32:21;4.33;;;1.20;;
13973;SDS011;7060;43.770;4.008;2023-04-24T06:34:51;4.87;;;0.90;;
13973;SDS011;7060;43.770;4.008;2023-04-24T06:37:20;3.63;;;0.80;;
13973;SDS011;7060;43.770;4.008;2023-04-24T06:39:48;3.07;;;0.63;;
13973;SDS011;7060;43.770;4.008;2023-04-24T06:42:17;4.47;;;0.90;;
13973;SDS011;7060;43.770;4.008;2023-04-24T06:44:50;3.50;;;0.73;;
13973;SDS011;7060;43.770;4.008;2023-04-24T06:47:18;1.33;;;0.50;;
13973;SDS011;7060;43.770;4.008;2023-04-24T06:49:47;4.17;;;0.60;;
13973;SDS011;7060;43.770;4.008;2023-04-24T06:52:17;2.43;;;0.53;;
13973;SDS011;7060;43.770;4.008;2023-04-24T06:54:46;2.80;;;0.70;;
13973;SDS011;7060;43.770;4.008;2023-04-24T06:57:14;5.03;;;0.63;;
13973;SDS011;7060;43.770;4.008;2023-04-24T06:59:43;2.23;;;0.70;;
13973;SDS011;7060;43.770;4.008;2023-04-24T07:02:13;4.23;;;0.83;;
13973;SDS011;7060;43.770;4.008;2023-04-24T07:04:42;5.00;;;1.03;;
13973;SDS011;7060;43.770;4.008;2023-04-24T07:07:11;5.97;;;1.10;;
13973;SDS011;7060;43.770;4.008;2023-04-24T07:09:40;1.67;;;0.80;;
13973;SDS011;7060;43.770;4.008;2023-04-24T07:12:11;4.07;;;0.87;;
13973;SDS011;7060;43.770;4.008;2023-04-24T07:14:40;1.27;;;0.50;;
13973;SDS011;7060;43.770;4.008;2023-04-24T07:17:09;3.20;;;0.70;;
13973;SDS011;7060;43.770;4.008;2023-04-24T07:19:41;3.10;;;0.80;;
13973;SDS011;7060;43.770;4.008;2023-04-24T07:22:10;1.25;;;0.45;;
13973;SDS011;7060;43.770;4.008;2023-04-24T07:24:43;1.33;;;0.57;;
13973;SDS011;7060;43.770;4.008;2023-04-24T07:27:13;0.77;;;0.40;;
13973;SDS011;7060;43.770;4.008;2023-04-24T07:29:42;0.68;;;0.47;;
13973;SDS011;7060;43.770;4.008;2023-04-24T07:32:11;2.40;;;0.73;;
13973;SDS011;7060;43.770;4.008;2023-04-24T07:34:41;1.13;;;0.90;;
13973;SDS011;7060;43.770;4.008;2023-04-24T07:37:10;2.83;;;0.30;;
13973;SDS011;7060;43.770;4.008;2023-04-24T07:39:39;0.77;;;0.40;;
13973;SDS011;7060;43.770;4.008;2023-04-24T07:42:08;0.88;;;0.20;;
13973;SDS011;7060;43.770;4.008;2023-04-24T07:44:37;2.28;;;0.47;;
13973;SDS011;7060;43.770;4.008;2023-04-24T07:47:05;1.50;;;0.30;;
13973;SDS011;7060;43.770;4.008;2023-04-24T07:49:34;1.30;;;0.45;;
13973;SDS011;7060;43.770;4.008;2023-04-24T07:52:04;1.27;;;0.40;;
13973;SDS011;7060;43.770;4.008;2023-04-24T07:54:33;1.58;;;0.38;;
13973;SDS011;7060;43.770;4.008;2023-04-24T07:57:02;1.70;;;0.40;;
13973;SDS011;7060;43.770;4.008;2023-04-24T07:59:31;2.80;;;0.50;;
13973;SDS011;7060;43.770;4.008;2023-04-24T08:01:59;1.87;;;0.60;;
13973;SDS011;7060;43.770;4.008;2023-04-24T08:04:29;1.50;;;0.30;;
13973;SDS011;7060;43.770;4.008;2023-04-24T08:06:58;2.67;;;0.50;;
13973;SDS011;7060;43.770;4.008;2023-04-24T08:09:28;1.17;;;0.40;;
13973;SDS011;7060;43.770;4.008;2023-04-24T08:11:56;2.23;;;0.30;;
13973;SDS011;7060;43.770;4.008;2023-04-24T08:14:25;1.23;;;0.50;;
13973;SDS011;7060;43.770;4.008;2023-04-24T08:16:54;1.90;;;0.60;;
13973;SDS011;7060;43.770;4.008;2023-04-24T08:19:23;8.33;;;0.50;;
13973;SDS011;7060;43.770;4.008;2023-04-24T08:21:52;1.77;;;0.43;;
13973;SDS011;7060;43.770;4.008;2023-04-24T08:24:22;2.03;;;0.50;;
13973;SDS011;7060;43.770;4.008;2023-04-24T08:26:52;2.07;;;0.43;;
13973;SDS011;7060;43.770;4.008;2023-04-24T08:29:23;1.40;;;0.30;;
13973;SDS011;7060;43.770;4.008;2023-04-24T08:31:53;1.30;;;0.40;;
13973;SDS011;7060;43.770;4.008;2023-04-24T08:34:22;1.17;;;0.53;;
13973;SDS011;7060;43.770;4.008;2023-04-24T08:36:51;2.23;;;1.43;;
13973;SDS011;7060;43.770;4.008;2023-04-24T08:39:20;3.40;;;1.37;;
13973;SDS011;7060;43.770;4.008;2023-04-24T08:41:48;1.17;;;0.47;;
13973;SDS011;7060;43.770;4.008;2023-04-24T08:44:20;0.87;;;0.47;;
13973;SDS011;7060;43.770;4.008;2023-04-24T08:46:49;4.83;;;0.53;;
13973;SDS011;7060;43.770;4.008;2023-04-24T08:49:18;2.40;;;0.30;;
13973;SDS011;7060;43.770;4.008;2023-04-24T08:51:48;1.47;;;0.40;;
13973;SDS011;7060;43.770;4.008;2023-04-24T08:54:18;2.20;;;0.40;;
13973;SDS011;7060;43.770;4.008;2023-04-24T08:56:48;1.03;;;0.30;;
13973;SDS011;7060;43.770;4.008;2023-04-24T08:59:19;1.53;;;0.30;;
13973;SDS011;7060;43.770;4.008;2023-04-24T09:01:50;0.73;;;0.30;;
13973;SDS011;7060;43.770;4.008;2023-04-24T09:04:20;1.13;;;0.30;;
13973;SDS011;7060;43.770;4.008;2023-04-24T09:06:52;0.70;;;0.30;;
13973;SDS011;7060;43.770;4.008;2023-04-24T09:09:24;1.00;;;0.17;;
13973;SDS011;7060;43.770;4.008;2023-04-24T09:11:53;1.33;;;0.20;;
13973;SDS011;7060;43.770;4.008;2023-04-24T09:14:24;1.17;;;0.20;;
13973;SDS011;7060;43.770;4.008;2023-04-24T09:16:52;0.30;;;0.10;;
13973;SDS011;7060;43.770;4.008;2023-04-24T09:19:21;0.33;;;0.20;;
13973;SDS011;7060;43.770;4.008;2023-04-24T09:21:50;0.53;;;0.20;;
13973;SDS011;7060;43.770;4.008;2023-04-24T09:24:21;1.70;;;0.47;;
13973;SDS011;7060;43.770;4.008;2023-04-24T09:26:55;0.63;;;0.20;;
13973;SDS011;7060;43.770;4.008;2023-04-24T09:29:27;1.03;;;0.20;;
13973;SDS011;7060;43.770;4.008;2023-04-24T09:31:56;0.97;;;0.10;;
13973;SDS011;7060;43.770;4.008;2023-04-24T09:34:26;0.63;;;0.10;;
13973;SDS011;7060;43.770;4.008;2023-04-24T09:36:55;0.50;;;0.10;;
13973;SDS011;7060;43.770;4.008;2023-04-24T09:39:24;1.33;;;0.27;;
13973;SDS011;7060;43.770;4.008;2023-04-24T09:41:53;0.40;;;0.10;;
13973;SDS011;7060;43.770;4.008;2023-04-24T09:44:26;0.70;;;0.20;;
13973;SDS011;7060;43.770;4.008;2023-04-24T09:46:57;1.60;;;0.13;;
13973;SDS011;7060;43.770;4.008;2023-04-24T09:49:27;1.80;;;0.20;;
13973;SDS011;7060;43.770;4.008;2023-04-24T09:52:03;0.63;;;0.13;;
13973;SDS011;7060;43.770;4.008;2023-04-24T09:54:32;0.37;;;0.10;;
13973;SDS011;7060;43.770;4.008;2023-04-24T09:57:03;1.33;;;0.23;;
13973;SDS011;7060;43.770;4.008;2023-04-24T09:59:34;0.67;;;0.20;;
13973;SDS011;7060;43.770;4.008;2023-04-24T10:02:03;1.37;;;0.20;;
13973;SDS011;7060;43.770;4.008;2023-04-24T10:04:53;0.50;;;0.20;;
13973;SDS011;7060;43.770;4.008;2023-04-24T10:07:25;1.60;;;0.30;;
13973;SDS011;7060;43.770;4.008;2023-04-24T10:09:54;0.20;;;0.20;;
13973;SDS011;7060;43.770;4.008;2023-04-24T10:12:22;2.00;;;0.27;;
13973;SDS011;7060;43.770;4.008;2023-04-24T10:14:53;0.40;;;0.20;;
13973;SDS011;7060;43.770;4.008;2023-04-24T10:17:22;1.07;;;0.20;;
13973;SDS011;7060;43.770;4.008;2023-04-24T10:19:53;1.83;;;0.30;;
13973;SDS011;7060;43.770;4.008;2023-04-24T10:22:22;0.93;;;0.30;;
13973;SDS011;7060;43.770;4.008;2023-04-24T10:24:52;1.80;;;0.40;;
13973;SDS011;7060;43.770;4.008;2023-04-24T10:27:21;0.70;;;0.30;;
13973;SDS011;7060;43.770;4.008;2023-04-24T10:29:51;0.52;;;0.28;;
13973;SDS011;7060;43.770;4.008;2023-04-24T10:32:23;0.95;;;0.20;;
13973;SDS011;7060;43.770;4.008;2023-04-24T10:34:51;0.88;;;0.22;;
13973;SDS011;7060;43.770;4.008;2023-04-24T10:37:20;1.70;;;0.30;;
13973;SDS011;7060;43.770;4.008;2023-04-24T10:39:49;0.68;;;0.28;;
13973;SDS011;7060;43.770;4.008;2023-04-24T10:42:21;0.40;;;0.20;;
13973;SDS011;7060;43.770;4.008;2023-04-24T10:44:50;0.43;;;0.22;;
13973;SDS011;7060;43.770;4.008;2023-04-24T10:47:20;0.95;;;0.40;;
13973;SDS011;7060;43.770;4.008;2023-04-24T10:49:50;0.88;;;0.30;;
13973;SDS011;7060;43.770;4.008;2023-04-24T10:52:19;3.35;;;0.35;;
13973;SDS011;7060;43.770;4.008;2023-04-24T10:54:48;0.95;;;0.40;;
13973;SDS011;7060;43.770;4.008;2023-04-24T10:57:26;0.73;;;0.30;;
13973;SDS011;7060;43.770;4.008;2023-04-24T11:02:49;4.50;;;0.47;;
13973;SDS011;7060;43.770;4.008;2023-04-24T11:05:22;0.45;;;0.28;;
13973;SDS011;7060;43.770;4.008;2023-04-24T11:08:11;2.45;;;0.30;;
13973;SDS011;7060;43.770;4.008;2023-04-24T11:10:43;1.52;;;0.28;;
13973;SDS011;7060;43.770;4.008;2023-04-24T11:13:14;0.85;;;0.30;;
13973;SDS011;7060;43.770;4.008;2023-04-24T11:15:44;1.67;;;0.30;;
13973;SDS011;7060;43.770;4.008;2023-04-24T11:18:40;0.75;;;0.20;;
13973;SDS011;7060;43.770;4.008;2023-04-24T11:21:12;1.02;;;0.47;;
13973;SDS011;7060;43.770;4.008;2023-04-24T11:23:44;1.65;;;0.30;;
13973;SDS011;7060;43.770;4.008;2023-04-24T11:26:17;1.67;;;0.45;;
13973;SDS011;7060;43.770;4.008;2023-04-24T11:28:47;1.25;;;0.40;;
13973;SDS011;7060;43.770;4.008;2023-04-24T11:31:35;1.42;;;0.40;;
13973;SDS011;7060;43.770;4.008;2023-04-24T11:34:08;0.70;;;0.30;;
13973;SDS011;7060;43.770;4.008;2023-04-24T11:36:38;1.95;;;0.32;;
13973;SDS011;7060;43.770;4.008;2023-04-24T11:39:07;2.75;;;0.40;;
13973;SDS011;7060;43.770;4.008;2023-04-24T11:41:37;1.10;;;0.30;;
13973;SDS011;7060;43.770;4.008;2023-04-24T11:44:06;2.10;;;0.30;;
13973;SDS011;7060;43.770;4.008;2023-04-24T11:46:36;2.08;;;0.47;;
13973;SDS011;7060;43.770;4.008;2023-04-24T11:49:09;1.25;;;0.38;;
13973;SDS011;7060;43.770;4.008;2023-04-24T11:51:37;1.67;;;0.35;;
13973;SDS011;7060;43.770;4.008;2023-04-24T11:54:19;1.33;;;0.30;;
13973;SDS011;7060;43.770;4.008;2023-04-24T11:56:48;1.75;;;0.55;;
13973;SDS011;7060;43.770;4.008;2023-04-24T11:59:17;0.88;;;0.40;;
13973;SDS011;7060;43.770;4.008;2023-04-24T12:01:46;1.02;;;0.40;;
13973;SDS011;7060;43.770;4.008;2023-04-24T12:04:17;0.80;;;0.38;;
13973;SDS011;7060;43.770;4.008;2023-04-24T12:06:59;0.40;;;0.30;;
13973;SDS011;7060;43.770;4.008;2023-04-24T12:09:28;1.85;;;0.52;;
13973;SDS011;7060;43.770;4.008;2023-04-24T12:11:57;0.45;;;0.30;;
13973;SDS011;7060;43.770;4.008;2023-04-24T12:14:25;1.75;;;0.45;;
13973;SDS011;7060;43.770;4.008;2023-04-24T12:16:54;0.93;;;0.40;;
13973;SDS011;7060;43.770;4.008;2023-04-24T12:19:25;1.40;;;0.45;;
13973;SDS011;7060;43.770;4.008;2023-04-24T12:21:59;1.10;;;0.32;;
13973;SDS011;7060;43.770;4.008;2023-04-24T12:24:28;0.98;;;0.47;;
13973;SDS011;7060;43.770;4.008;2023-04-24T12:26:58;1.50;;;0.45;;
13973;SDS011;7060;43.770;4.008;2023-04-24T12:29:29;1.07;;;0.40;;
13973;SDS011;7060;43.770;4.008;2023-04-24T12:31:59;0.57;;;0.30;;
13973;SDS011;7060;43.770;4.008;2023-04-24T12:34:31;0.80;;;0.40;;
13973;SDS011;7060;43.770;4.008;2023-04-24T12:37:09;1.07;;;0.30;;
13973;SDS011;7060;43.770;4.008;2023-04-24T12:39:38;0.87;;;0.30;;
13973;SDS011;7060;43.770;4.008;2023-04-24T12:42:12;0.37;;;0.27;;
13973;SDS011;7060;43.770;4.008;2023-04-24T12:44:41;1.13;;;0.40;;
13973;SDS011;7060;43.770;4.008;2023-04-24T12:47:10;1.93;;;0.57;;
13973;SDS011;7060;43.770;4.008;2023-04-24T12:49:41;2.17;;;0.60;;
13973;SDS011;7060;43.770;4.008;2023-04-24T12:52:11;0.80;;;0.40;;
13973;SDS011;7060;43.770;4.008;2023-04-24T12:54:40;1.20;;;0.70;;
13973;SDS011;7060;43.770;4.008;2023-04-24T12:57:08;1.03;;;0.40;;
13973;SDS011;7060;43.770;4.008;2023-04-24T12:59:37;0.67;;;0.40;;
13973;SDS011;7060;43.770;4.008;2023-04-24T13:02:07;1.13;;;0.50;;
13973;SDS011;7060;43.770;4.008;2023-04-24T13:04:37;3.03;;;0.60;;
13973;SDS011;7060;43.770;4.008;2023-04-24T13:07:07;2.43;;;0.40;;
13973;SDS011;7060;43.770;4.008;2023-04-24T13:09:35;1.03;;;0.37;;
13973;SDS011;7060;43.770;4.008;2023-04-24T13:12:04;0.67;;;0.33;;
13973;SDS011;7060;43.770;4.008;2023-04-24T13:14:33;0.80;;;0.50;;
13973;SDS011;7060;43.770;4.008;2023-04-24T13:17:02;2.17;;;0.50;;
13973;SDS011;7060;43.770;4.008;2023-04-24T13:19:35;2.00;;;0.50;;
13973;SDS011;7060;43.770;4.008;2023-04-24T13:22:05;3.70;;;0.67;;
13973;SDS011;7060;43.770;4.008;2023-04-24T13:24:35;1.37;;;0.57;;
13973;SDS011;7060;43.770;4.008;2023-04-24T13:27:05;1.30;;;0.67;;
13973;SDS011;7060;43.770;4.008;2023-04-24T13:29:34;2.45;;;0.50;;
13973;SDS011;7060;43.770;4.008;2023-04-24T13:32:03;0.97;;;0.47;;
13973;SDS011;7060;43.770;4.008;2023-04-24T13:34:32;2.83;;;0.50;;
13973;SDS011;7060;43.770;4.008;2023-04-24T13:37:03;1.43;;;0.50;;
13973;SDS011;7060;43.770;4.008;2023-04-24T13:39:34;1.27;;;0.40;;
13973;SDS011;7060;43.770;4.008;2023-04-24T13:42:04;2.40;;;0.80;;
13973;SDS011;7060;43.770;4.008;2023-04-24T13:44:33;1.60;;;0.63;;
13973;SDS011;7060;43.770;4.008;2023-04-24T13:47:02;1.57;;;0.40;;
13973;SDS011;7060;43.770;4.008;2023-04-24T13:49:30;0.67;;;0.50;;
13973;SDS011;7060;43.770;4.008;2023-04-24T13:51:59;1.13;;;0.50;;
13973;SDS011;7060;43.770;4.008;2023-04-24T13:54:28;1.07;;;0.43;;
13973;SDS011;7060;43.770;4.008;2023-04-24T13:56:58;1.50;;;0.57;;
13973;SDS011;7060;43.770;4.008;2023-04-24T13:59:27;0.90;;;0.33;;
13973;SDS011;7060;43.770;4.008;2023-04-24T14:01:56;1.13;;;0.60;;
13973;SDS011;7060;43.770;4.008;2023-04-24T14:04:25;3.40;;;0.73;;
13973;SDS011;7060;43.770;4.008;2023-04-24T14:06:54;1.80;;;0.60;;
13973;SDS011;7060;43.770;4.008;2023-04-24T14:09:23;2.13;;;0.50;;
13973;SDS011;7060;43.770;4.008;2023-04-24T14:11:51;1.07;;;0.50;;
13973;SDS011;7060;43.770;4.008;2023-04-24T14:14:22;2.30;;;0.70;;
13973;SDS011;7060;43.770;4.008;2023-04-24T14:16:51;1.10;;;0.67;;
13973;SDS011;7060;43.770;4.008;2023-04-24T14:19:19;0.90;;;0.40;;
13973;SDS011;7060;43.770;4.008;2023-04-24T14:21:48;2.77;;;0.57;;
13973;SDS011;7060;43.770;4.008;2023-04-24T14:24:17;1.57;;;0.60;;
13973;SDS011;7060;43.770;4.008;2023-04-24T14:26:45;1.23;;;0.43;;
13973;SDS011;7060;43.770;4.008;2023-04-24T14:29:14;1.23;;;0.53;;
13973;SDS011;7060;43.770;4.008;2023-04-24T14:31:45;1.00;;;0.50;;
13973;SDS011;7060;43.770;4.008;2023-04-24T14:34:14;3.07;;;0.70;;
13973;SDS011;7060;43.770;4.008;2023-04-24T14:36:42;2.47;;;0.60;;
13973;SDS011;7060;43.770;4.008;2023-04-24T14:39:11;0.73;;;0.50;;
13973;SDS011;7060;43.770;4.008;2023-04-24T14:41:40;0.67;;;0.50;;
13973;SDS011;7060;43.770;4.008;2023-04-24T14:44:09;2.10;;;0.63;;
13973;SDS011;7060;43.770;4.008;2023-04-24T14:46:38;0.95;;;0.45;;
13973;SDS011;7060;43.770;4.008;2023-04-24T14:49:09;1.90;;;0.53;;
13973;SDS011;7060;43.770;4.008;2023-04-24T14:51:39;0.90;;;0.50;;
13973;SDS011;7060;43.770;4.008;2023-04-24T14:54:10;1.30;;;0.60;;
13973;SDS011;7060;43.770;4.008;2023-04-24T14:56:39;3.33;;;0.70;;
13973;SDS011;7060;43.770;4.008;2023-04-24T14:59:09;1.50;;;0.60;;
13973;SDS011;7060;43.770;4.008;2023-04-24T15:01:38;1.00;;;0.50;;
13973;SDS011;7060;43.770;4.008;2023-04-24T15:04:08;1.53;;;0.70;;
13973;SDS011;7060;43.770;4.008;2023-04-24T15:06:37;1.30;;;0.60;;
13973;SDS011;7060;43.770;4.008;2023-04-24T15:09:06;1.07;;;0.70;;
13973;SDS011;7060;43.770;4.008;2023-04-24T15:11:35;1.00;;;0.53;;
13973;SDS011;7060;43.770;4.008;2023-04-24T15:14:03;1.20;;;0.70;;
13973;SDS011;7060;43.770;4.008;2023-04-24T15:16:32;1.10;;;0.50;;
13973;SDS011;7060;43.770;4.008;2023-04-24T15:19:01;1.60;;;0.43;;
13973;SDS011;7060;43.770;4.008;2023-04-24T15:21:31;1.63;;;0.53;;